sensor_id;sensor_type;location;lat;lon;timestamp;temperature;humidity
13754;DHT22;6948;51.216;6.778;2023-03-29T20:15:04;14.40;99.90
13754;DHT22;6948;51.216;6.778;2023-03-29T20:17:30;14.30;99.90
13754;DHT22;6948;51.216;6.778;2023-03-29T20:19:56;14.30;99.90
13754;DHT22;6948;51.216;6.778;2023-03-29T20:22:22;14.30;99.90
13754;DHT22;6948;51.216;6.778;2023-03-29T20:24:51;14.30;99.90
13754;DHT22;6948;51.216;6.778;2023-03-29T20:27:17;14.30;99.90
13754;DHT22;6948;51.216;6.778;2023-03-29T20:29:42;14.30;99.90
13754;DHT22;6948;51.216;6.778;2023-03-29T20:32:08;14.30;99.90
13754;DHT22;6948;51.216;6.778;2023-03-29T20:34:34;14.30;99.90
13754;DHT22;6948;51.216;6.778;2023-03-29T20:37:00;14.30;99.90
13754;DHT22;6948;51.216;6.778;2023-03-29T20:39:27;14.20;99.90
13754;DHT22;6948;51.216;6.778;2023-03-29T20:41:54;14.20;99.90
13754;DHT22;6948;51.216;6.778;2023-03-29T20:44:19;14.20;99.90
13754;DHT22;6948;51.216;6.778;2023-03-29T20:46:51;14.20;99.90
13754;DHT22;6948;51.216;6.778;2023-03-29T20:49:34;14.10;99.90
13754;DHT22;6948;51.216;6.778;2023-03-29T20:52:10;14.10;99.90
13754;DHT22;6948;51.216;6.778;2023-03-29T20:54:41;14.00;99.90
13754;DHT22;6948;51.216;6.778;2023-03-29T20:57:09;14.00;99.90
13754;DHT22;6948;51.216;6.778;2023-03-29T20:59:35;14.00;99.90
13754;DHT22;6948;51.216;6.778;2023-03-29T21:02:03;13.90;99.90
13754;DHT22;6948;51.216;6.778;2023-03-29T21:04:29;13.90;99.90
13754;DHT22;6948;51.216;6.778;2023-03-29T21:06:55;13.90;99.90
13754;DHT22;6948;51.216;6.778;2023-03-29T21:09:22;13.90;99.90
13754;DHT22;6948;51.216;6.778;2023-03-29T21:11:48;13.90;99.90
13754;DHT22;6948;51.216;6.778;2023-03-29T21:14:15;13.90;99.90
13754;DHT22;6948;51.216;6.778;2023-03-29T21:16:46;13.80;99.90
13754;DHT22;6948;51.216;6.778;2023-03-29T21:19:13;13.80;99.90
13754;DHT22;6948;51.216;6.778;2023-03-29T21:21:39;13.80;99.90
13754;DHT22;6948;51.216;6.778;2023-03-29T21:24:08;13.80;99.90
13754;DHT22;6948;51.216;6.778;2023-03-29T21:26:35;13.80;99.90
13754;DHT22;6948;51.216;6.778;2023-03-29T21:29:02;13.80;99.90
13754;DHT22;6948;51.216;6.778;2023-03-29T21:31:28;13.80;99.90
13754;DHT22;6948;51.216;6.778;2023-03-29T21:33:53;13.80;99.90
13754;DHT22;6948;51.216;6.778;2023-03-29T21:36:21;13.80;99.90
13754;DHT22;6948;51.216;6.778;2023-03-29T21:38:48;13.80;99.90
13754;DHT22;6948;51.216;6.778;2023-03-29T21:41:13;13.70;99.90
13754;DHT22;6948;51.216;6.778;2023-03-29T21:43:40;13.70;99.90
13754;DHT22;6948;51.216;6.778;2023-03-29T21:46:06;13.60;99.90
13754;DHT22;6948;51.216;6.778;2023-03-29T21:48:31;13.60;99.90
13754;DHT22;6948;51.216;6.778;2023-03-29T21:50:57;13.60;99.90
13754;DHT22;6948;51.216;6.778;2023-03-29T21:53:24;13.60;99.90
13754;DHT22;6948;51.216;6.778;2023-03-29T21:55:51;13.60;99.90
13754;DHT22;6948;51.216;6.778;2023-03-29T21:58:17;13.60;99.90
13754;DHT22;6948;51.216;6.778;2023-03-29T22:00:44;13.50;99.90
13754;DHT22;6948;51.216;6.778;2023-03-29T22:03:11;13.50;99.90
13754;DHT22;6948;51.216;6.778;2023-03-29T22:05:36;13.50;99.90
13754;DHT22;6948;51.216;6.778;2023-03-29T22:08:03;13.50;99.90
13754;DHT22;6948;51.216;6.778;2023-03-29T22:10:29;13.60;99.90
13754;DHT22;6948;51.216;6.778;2023-03-29T22:12:58;13.60;99.90
13754;DHT22;6948;51.216;6.778;2023-03-29T22:15:24;13.50;99.90
13754;DHT22;6948;51.216;6.778;2023-03-29T22:17:50;13.50;99.90
13754;DHT22;6948;51.216;6.778;2023-03-29T22:20:18;13.50;99.90
13754;DHT22;6948;51.216;6.778;2023-03-29T22:22:46;13.50;99.90
13754;DHT22;6948;51.216;6.778;2023-03-29T22:25:15;13.50;99.90
13754;DHT22;6948;51.216;6.778;2023-03-29T22:27:42;13.50;99.90
13754;DHT22;6948;51.216;6.778;2023-03-29T22:30:09;13.50;99.90
13754;DHT22;6948;51.216;6.778;2023-03-29T22:32:35;13.50;99.90
13754;DHT22;6948;51.216;6.778;2023-03-29T22:35:02;13.40;99.90
13754;DHT22;6948;51.216;6.778;2023-03-29T22:37:27;13.40;99.90
13754;DHT22;6948;51.216;6.778;2023-03-29T22:39:53;13.40;99.90
13754;DHT22;6948;51.216;6.778;2023-03-29T22:42:19;13.30;99.90
13754;DHT22;6948;51.216;6.778;2023-03-29T22:44:45;13.30;99.90
13754;DHT22;6948;51.216;6.778;2023-03-29T22:47:11;13.30;99.90
13754;DHT22;6948;51.216;6.778;2023-03-29T22:49:37;13.20;99.90
13754;DHT22;6948;51.216;6.778;2023-03-29T22:52:03;13.20;99.90
13754;DHT22;6948;51.216;6.778;2023-03-29T22:54:29;13.20;99.90
13754;DHT22;6948;51.216;6.778;2023-03-29T22:56:55;13.20;99.90
13754;DHT22;6948;51.216;6.778;2023-03-29T22:59:22;13.20;99.90
13754;DHT22;6948;51.216;6.778;2023-03-29T23:01:48;13.20;99.90
13754;DHT22;6948;51.216;6.778;2023-03-29T23:04:14;13.20;99.90
13754;DHT22;6948;51.216;6.778;2023-03-29T23:06:40;13.20;99.90
13754;DHT22;6948;51.216;6.778;2023-03-29T23:09:06;13.20;99.90
13754;DHT22;6948;51.216;6.778;2023-03-29T23:11:32;13.10;99.90
13754;DHT22;6948;51.216;6.778;2023-03-29T23:13:58;13.10;99.90
13754;DHT22;6948;51.216;6.778;2023-03-29T23:16:23;13.10;99.90
13754;DHT22;6948;51.216;6.778;2023-03-29T23:18:49;13.10;99.90
13754;DHT22;6948;51.216;6.778;2023-03-29T23:21:15;13.10;99.90
13754;DHT22;6948;51.216;6.778;2023-03-29T23:23:41;13.10;99.90
13754;DHT22;6948;51.216;6.778;2023-03-29T23:26:07;13.10;99.90
13754;DHT22;6948;51.216;6.778;2023-03-29T23:28:33;13.10;99.90
13754;DHT22;6948;51.216;6.778;2023-03-29T23:33:40;13.00;99.90
13754;DHT22;6948;51.216;6.778;2023-03-29T23:36:09;13.10;99.90
13754;DHT22;6948;51.216;6.778;2023-03-29T23:38:36;13.10;99.90
13754;DHT22;6948;51.216;6.778;2023-03-29T23:41:11;13.00;99.90
13754;DHT22;6948;51.216;6.778;2023-03-29T23:43:40;13.10;99.90
13754;DHT22;6948;51.216;6.778;2023-03-29T23:46:08;13.10;99.90
13754;DHT22;6948;51.216;6.778;2023-03-29T23:48:34;13.10;99.90
13754;DHT22;6948;51.216;6.778;2023-03-29T23:51:01;13.10;99.90
13754;DHT22;6948;51.216;6.778;2023-03-29T23:53:28;13.10;99.90
13754;DHT22;6948;51.216;6.778;2023-03-29T23:55:58;13.10;99.90
13754;DHT22;6948;51.216;6.778;2023-03-29T23:58:27;13.10;99.90
